createdAt,value
2023-02-09T00:01:49.070Z,3.35
2023-02-09T00:06:52.452Z,3.20
2023-02-09T00:11:56.316Z,3.38
2023-02-09T00:17:02.065Z,3.85
2023-02-09T00:22:05.301Z,3.40
2023-02-09T00:27:08.525Z,2.97
2023-02-09T00:32:11.729Z,3.40
2023-02-09T00:37:16.267Z,3.40
2023-02-09T00:42:21.987Z,3.20
2023-02-09T00:47:25.968Z,2.58
2023-02-09T00:52:29.021Z,2.45
2023-02-09T00:57:32.118Z,2.60
2023-02-09T01:02:35.723Z,2.60
2023-02-09T01:07:38.850Z,2.20
2023-02-09T01:12:42.736Z,1.80
2023-02-09T01:17:46.038Z,1.92
2023-02-09T01:27:52.257Z,2.33
2023-02-09T01:32:55.411Z,1.90
2023-02-09T01:37:58.504Z,1.75
2023-02-09T01:43:01.757Z,1.63
2023-02-09T01:48:05.124Z,1.77
2023-02-09T01:53:08.825Z,1.77
2023-02-09T01:58:15.664Z,2.20
2023-02-09T02:03:25.389Z,1.60
2023-02-09T02:08:37.295Z,1.70
2023-02-09T02:13:40.440Z,1.55
2023-02-09T02:19:12.469Z,1.63
2023-02-09T02:25:03.346Z,1.38
2023-02-09T02:30:24.878Z,1.83
2023-02-09T02:35:44.532Z,1.60
2023-02-09T02:41:06.056Z,1.70
2023-02-09T02:46:36.015Z,1.63
2023-02-09T02:51:49.539Z,1.77
2023-02-09T02:56:59.486Z,1.40
2023-02-09T03:02:08.740Z,1.73
2023-02-09T03:07:11.877Z,1.42
2023-02-09T03:12:38.710Z,1.83
2023-02-09T03:17:47.384Z,2.05
2023-02-09T03:22:57.579Z,1.75
2023-02-09T03:28:09.608Z,1.83
2023-02-09T03:33:25.133Z,1.50
2023-02-09T03:38:28.644Z,1.67
2023-02-09T03:43:31.852Z,1.75
2023-02-09T03:48:34.915Z,1.73
2023-02-09T03:53:38.140Z,1.77
2023-02-09T03:58:41.236Z,1.95
2023-02-09T04:03:44.269Z,1.90
2023-02-09T04:08:49.137Z,1.58
2023-02-09T04:13:52.516Z,1.80
2023-02-09T04:18:55.644Z,1.90
2023-02-09T04:23:58.778Z,1.67
2023-02-09T04:29:02.532Z,1.90
2023-02-09T04:39:08.566Z,1.67
2023-02-09T04:44:16.262Z,2.17
2023-02-09T04:49:19.494Z,1.92
2023-02-09T04:54:22.520Z,1.50
2023-02-09T04:59:25.677Z,1.98
2023-02-09T05:04:28.935Z,1.83
2023-02-09T05:09:32.119Z,1.70
2023-02-09T05:14:35.168Z,1.73
2023-02-09T05:19:38.250Z,1.83
2023-02-09T05:24:41.341Z,1.98
2023-02-09T05:29:44.665Z,2.00
2023-02-09T05:34:48.334Z,1.80
2023-02-09T05:39:51.652Z,1.65
2023-02-09T05:44:54.762Z,1.85
2023-02-09T05:49:57.847Z,1.83
2023-02-09T05:55:01.025Z,1.90
2023-02-09T06:00:06.906Z,1.60
2023-02-09T06:05:14.834Z,1.60
2023-02-09T06:10:19.077Z,1.85
2023-02-09T06:15:24.864Z,1.50
2023-02-09T06:20:28.007Z,1.90
2023-02-09T06:25:31.863Z,1.60
2023-02-09T06:30:35.110Z,1.90
2023-02-09T06:35:38.294Z,1.55
2023-02-09T06:40:41.490Z,1.33
2023-02-09T06:45:44.690Z,3.22
2023-02-09T06:50:47.956Z,1.60
2023-02-09T06:55:51.778Z,1.88
2023-02-09T07:00:54.942Z,2.13
2023-02-09T07:06:06.855Z,2.40
2023-02-09T07:11:13.838Z,2.55
2023-02-09T07:16:17.062Z,1.98
2023-02-09T07:21:20.214Z,1.92
2023-02-09T07:26:23.243Z,1.70
2023-02-09T07:31:26.472Z,2.13
2023-02-09T07:41:33.757Z,1.65
2023-02-09T07:46:36.874Z,1.83
2023-02-09T07:51:40.097Z,1.75
2023-02-09T07:56:43.320Z,1.20
2023-02-09T08:06:50.191Z,1.40
2023-02-09T08:12:04.130Z,1.30
2023-02-09T08:17:11.872Z,1.25
2023-02-09T08:22:15.096Z,1.23
2023-02-09T08:27:18.289Z,1.60
2023-02-09T08:32:21.781Z,1.92
2023-02-09T08:37:25.036Z,1.50
2023-02-09T08:42:28.684Z,1.60
2023-02-09T08:47:32.242Z,2.10
2023-02-09T08:52:35.498Z,2.33
2023-02-09T09:02:47.768Z,2.80
2023-02-09T09:07:50.911Z,3.28
2023-02-09T09:12:54.023Z,3.15
2023-02-09T09:17:57.250Z,3.72
2023-02-09T09:23:00.410Z,3.90
2023-02-09T09:28:03.548Z,3.63
2023-02-09T09:33:06.947Z,3.85
2023-02-09T09:43:33.277Z,4.00
2023-02-09T09:48:50.646Z,4.63
2023-02-09T09:53:55.880Z,3.95
2023-02-09T09:59:01.346Z,4.00
2023-02-09T10:04:13.517Z,3.95
2023-02-09T10:09:39.046Z,3.95
2023-02-09T10:14:42.767Z,4.25
2023-02-09T10:20:00.885Z,4.07
2023-02-09T10:25:53.351Z,3.83
2023-02-09T10:31:00.465Z,4.80
2023-02-09T10:36:04.066Z,3.80
2023-02-09T10:41:10.617Z,4.05
2023-02-09T10:46:19.543Z,4.10
2023-02-09T10:51:24.860Z,4.43
2023-02-09T10:56:35.552Z,4.05
2023-02-09T11:01:44.216Z,4.07
2023-02-09T11:06:56.502Z,4.05
2023-02-09T11:12:00.501Z,4.43
2023-02-09T11:17:33.249Z,4.22
2023-02-09T11:27:57.627Z,4.85
2023-02-09T11:33:26.945Z,5.47
2023-02-09T11:38:44.579Z,5.43
2023-02-09T11:43:51.673Z,5.55
2023-02-09T11:49:06.900Z,4.90
2023-02-09T11:54:16.182Z,5.38
2023-02-09T11:59:43.690Z,4.97
2023-02-09T12:04:55.279Z,5.82
2023-02-09T12:10:20.365Z,5.35
2023-02-09T12:15:37.539Z,4.55
2023-02-09T12:20:40.545Z,4.60
2023-02-09T12:25:55.222Z,4.72
2023-02-09T12:31:00.325Z,3.42
2023-02-09T12:36:05.704Z,3.42
2023-02-09T12:41:09.871Z,4.40
2023-02-09T12:46:14.728Z,3.58
2023-02-09T12:51:45.966Z,3.92
2023-02-09T12:56:49.150Z,3.30
2023-02-09T13:02:07.626Z,3.67
2023-02-09T13:07:41.915Z,2.83
2023-02-09T13:13:14.814Z,3.08
2023-02-09T13:18:44.106Z,3.53
2023-02-09T13:23:55.364Z,3.42
2023-02-09T13:29:22.532Z,3.53
2023-02-09T13:34:50.469Z,2.83
2023-02-09T13:40:02.355Z,3.47
2023-02-09T13:45:17.693Z,2.80
2023-02-09T13:50:26.263Z,3.30
2023-02-09T13:55:30.084Z,2.65
2023-02-09T14:00:54.700Z,2.80
2023-02-09T14:06:11.287Z,2.80
2023-02-09T14:11:41.138Z,2.35
2023-02-09T14:16:53.580Z,2.22
2023-02-09T14:21:57.618Z,2.22
2023-02-09T14:27:03.100Z,2.35
2023-02-09T14:32:32.174Z,2.40
2023-02-09T14:37:37.306Z,2.85
2023-02-09T14:43:06.976Z,2.90
2023-02-09T14:48:21.717Z,3.13
2023-02-09T14:53:28.273Z,3.10
2023-02-09T14:58:33.006Z,3.22
2023-02-09T15:03:36.211Z,3.00
2023-02-09T15:08:39.760Z,3.60
2023-02-09T15:13:42.900Z,3.88
2023-02-09T15:18:46.026Z,3.45
2023-02-09T15:23:49.118Z,4.10
2023-02-09T15:28:53.501Z,3.47
2023-02-09T15:33:56.619Z,3.75
2023-02-09T15:38:59.970Z,3.47
2023-02-09T15:44:15.904Z,3.50
2023-02-09T15:49:19.081Z,3.50
2023-02-09T15:54:30.187Z,3.70
2023-02-09T15:59:33.346Z,3.85
2023-02-09T16:04:36.499Z,4.32
2023-02-09T16:09:42.311Z,4.97
2023-02-09T16:14:45.535Z,4.43
2023-02-09T16:19:48.599Z,4.82
2023-02-09T16:24:52.142Z,4.50
2023-02-09T16:29:57.108Z,4.88
2023-02-09T16:35:14.590Z,4.05
2023-02-09T16:40:22.692Z,4.03
2023-02-09T16:45:29.246Z,4.40
2023-02-09T16:50:35.376Z,5.47
2023-02-09T16:55:38.776Z,5.30
2023-02-09T17:00:45.344Z,5.10
2023-02-09T17:05:58.189Z,5.00
2023-02-09T17:11:03.120Z,5.18
2023-02-09T17:16:07.353Z,3.72
2023-02-09T17:21:21.340Z,4.45
2023-02-09T17:26:24.907Z,4.10
2023-02-09T17:31:38.220Z,3.70
2023-02-09T17:36:47.192Z,3.03
2023-02-09T17:41:50.450Z,3.05
2023-02-09T17:46:54.670Z,3.45
2023-02-09T17:51:57.851Z,3.90
2023-02-09T17:57:01.136Z,3.53
2023-02-09T18:07:14.294Z,3.22
2023-02-09T18:17:22.944Z,2.80
2023-02-09T18:22:26.143Z,3.28
2023-02-09T18:27:29.296Z,2.88
2023-02-09T18:32:32.407Z,4.00
2023-02-09T18:37:35.703Z,2.90
2023-02-09T18:47:41.999Z,2.75
2023-02-09T18:52:49.412Z,2.55
2023-02-09T18:57:53.044Z,2.75
2023-02-09T19:02:57.303Z,2.50
2023-02-09T19:08:00.985Z,2.70
2023-02-09T19:13:04.797Z,2.60
2023-02-09T19:23:10.957Z,2.90
2023-02-09T19:28:14.218Z,4.15
2023-02-09T19:38:20.373Z,3.97
2023-02-09T19:43:23.814Z,3.50
2023-02-09T19:48:27.801Z,3.00
2023-02-09T19:53:30.995Z,2.90
2023-02-09T19:58:37.301Z,3.40
2023-02-09T20:03:40.743Z,3.30
2023-02-09T20:08:44.035Z,3.30
2023-02-09T20:13:53.294Z,2.85
2023-02-09T20:18:56.837Z,1.95
2023-02-09T20:24:00.360Z,1.75
2023-02-09T20:29:04.726Z,2.00
2023-02-09T20:34:11.796Z,1.88
2023-02-09T20:39:16.346Z,2.40
2023-02-09T20:44:19.558Z,2.17
2023-02-09T20:49:32.465Z,2.63
2023-02-09T20:54:36.199Z,2.60
2023-02-09T20:59:39.617Z,3.08
2023-02-09T21:09:45.560Z,3.33
2023-02-09T21:14:48.893Z,3.20
2023-02-09T21:19:52.038Z,3.45
2023-02-09T21:24:55.500Z,3.20
2023-02-09T21:29:59.607Z,3.22
2023-02-09T21:35:02.767Z,2.80
2023-02-09T21:40:07.108Z,3.13
2023-02-09T21:45:10.599Z,2.97
2023-02-09T21:50:14.070Z,3.30
2023-02-09T21:55:17.329Z,2.67
2023-02-09T22:00:20.625Z,3.58
2023-02-09T22:05:24.376Z,2.65
2023-02-09T22:15:30.370Z,3.58
2023-02-09T22:20:33.595Z,4.20
2023-02-09T22:25:37.198Z,3.75
2023-02-09T22:30:41.801Z,3.35
2023-02-09T22:35:45.096Z,3.42
2023-02-09T22:46:00.415Z,3.05
2023-02-09T22:51:03.633Z,3.60
2023-02-09T22:56:06.802Z,3.45
2023-02-09T23:01:11.004Z,3.67
2023-02-09T23:06:19.992Z,4.10
2023-02-09T23:11:23.912Z,3.80
2023-02-09T23:16:29.017Z,4.00
2023-02-09T23:21:35.007Z,3.92
2023-02-09T23:26:38.911Z,3.80
2023-02-09T23:31:43.584Z,3.85
2023-02-09T23:36:47.276Z,4.07
2023-02-09T23:41:50.553Z,3.92
2023-02-09T23:46:53.747Z,4.63
2023-02-09T23:51:56.929Z,4.20
2023-02-09T23:57:00.418Z,4.53
